sensor_id;sensor_type;location;lat;lon;timestamp;temperature;humidity
24412;DHT22;12544;46.760;15.942;2023-10-08T00:00:46;17.80;99.90
24412;DHT22;12544;46.760;15.942;2023-10-08T00:03:15;17.70;99.90
24412;DHT22;12544;46.760;15.942;2023-10-08T00:05:42;17.70;99.90
24412;DHT22;12544;46.760;15.942;2023-10-08T00:08:08;17.70;99.90
24412;DHT22;12544;46.760;15.942;2023-10-08T00:10:39;17.70;99.90
24412;DHT22;12544;46.760;15.942;2023-10-08T00:13:12;17.70;99.90
24412;DHT22;12544;46.760;15.942;2023-10-08T00:15:39;17.70;99.90
24412;DHT22;12544;46.760;15.942;2023-10-08T00:18:22;17.70;99.90
24412;DHT22;12544;46.760;15.942;2023-10-08T00:20:49;17.60;99.90
24412;DHT22;12544;46.760;15.942;2023-10-08T00:23:21;17.60;99.90
24412;DHT22;12544;46.760;15.942;2023-10-08T00:25:47;17.70;99.90
24412;DHT22;12544;46.760;15.942;2023-10-08T00:28:15;17.60;99.90
24412;DHT22;12544;46.760;15.942;2023-10-08T00:30:42;17.50;99.90
24412;DHT22;12544;46.760;15.942;2023-10-08T00:33:09;17.50;99.90
24412;DHT22;12544;46.760;15.942;2023-10-08T00:35:39;17.50;99.90
24412;DHT22;12544;46.760;15.942;2023-10-08T00:38:09;17.40;99.90
24412;DHT22;12544;46.760;15.942;2023-10-08T00:40:41;17.30;99.90
24412;DHT22;12544;46.760;15.942;2023-10-08T00:43:31;17.20;99.90
24412;DHT22;12544;46.760;15.942;2023-10-08T00:46:01;17.10;99.90
24412;DHT22;12544;46.760;15.942;2023-10-08T00:48:27;17.00;99.90
24412;DHT22;12544;46.760;15.942;2023-10-08T00:50:55;16.90;99.90
24412;DHT22;12544;46.760;15.942;2023-10-08T00:53:34;16.80;99.90
24412;DHT22;12544;46.760;15.942;2023-10-08T00:56:06;16.80;99.90
24412;DHT22;12544;46.760;15.942;2023-10-08T00:58:37;16.80;99.90
24412;DHT22;12544;46.760;15.942;2023-10-08T01:01:04;16.80;99.90
24412;DHT22;12544;46.760;15.942;2023-10-08T01:03:36;16.90;99.90
24412;DHT22;12544;46.760;15.942;2023-10-08T01:06:04;16.90;99.90
24412;DHT22;12544;46.760;15.942;2023-10-08T01:08:35;17.00;99.90
24412;DHT22;12544;46.760;15.942;2023-10-08T01:11:37;16.90;99.90
24412;DHT22;12544;46.760;15.942;2023-10-08T01:14:11;16.90;99.90
24412;DHT22;12544;46.760;15.942;2023-10-08T01:16:37;16.90;99.90
24412;DHT22;12544;46.760;15.942;2023-10-08T01:19:04;17.00;99.90
24412;DHT22;12544;46.760;15.942;2023-10-08T01:21:38;17.00;99.90
24412;DHT22;12544;46.760;15.942;2023-10-08T01:24:06;17.00;99.90
24412;DHT22;12544;46.760;15.942;2023-10-08T01:26:36;17.10;99.90
24412;DHT22;12544;46.760;15.942;2023-10-08T01:29:08;17.10;99.90
24412;DHT22;12544;46.760;15.942;2023-10-08T01:31:35;17.10;99.90
24412;DHT22;12544;46.760;15.942;2023-10-08T01:34:02;17.10;99.90
24412;DHT22;12544;46.760;15.942;2023-10-08T01:36:30;17.10;99.90
24412;DHT22;12544;46.760;15.942;2023-10-08T01:38:57;17.00;99.90
24412;DHT22;12544;46.760;15.942;2023-10-08T01:41:23;17.00;99.90
24412;DHT22;12544;46.760;15.942;2023-10-08T01:43:56;16.90;99.90
24412;DHT22;12544;46.760;15.942;2023-10-08T01:46:25;16.80;99.90
24412;DHT22;12544;46.760;15.942;2023-10-08T01:48:52;16.80;99.90
24412;DHT22;12544;46.760;15.942;2023-10-08T01:51:33;16.70;99.90
24412;DHT22;12544;46.760;15.942;2023-10-08T01:54:04;16.70;99.90
24412;DHT22;12544;46.760;15.942;2023-10-08T01:56:40;16.60;99.90
24412;DHT22;12544;46.760;15.942;2023-10-08T01:59:10;16.60;99.90
24412;DHT22;12544;46.760;15.942;2023-10-08T02:01:37;16.60;99.90
24412;DHT22;12544;46.760;15.942;2023-10-08T02:04:06;16.60;99.90
24412;DHT22;12544;46.760;15.942;2023-10-08T02:06:38;16.50;99.90
24412;DHT22;12544;46.760;15.942;2023-10-08T02:09:07;16.50;99.90
24412;DHT22;12544;46.760;15.942;2023-10-08T02:11:48;16.40;99.90
24412;DHT22;12544;46.760;15.942;2023-10-08T02:14:20;16.30;99.90
24412;DHT22;12544;46.760;15.942;2023-10-08T02:16:46;16.20;99.90
24412;DHT22;12544;46.760;15.942;2023-10-08T02:19:13;16.20;99.90
24412;DHT22;12544;46.760;15.942;2023-10-08T02:21:39;16.00;99.90
24412;DHT22;12544;46.760;15.942;2023-10-08T02:24:08;16.00;99.90
24412;DHT22;12544;46.760;15.942;2023-10-08T02:26:36;15.90;99.90
24412;DHT22;12544;46.760;15.942;2023-10-08T02:29:02;15.80;99.90
24412;DHT22;12544;46.760;15.942;2023-10-08T02:31:31;15.70;99.90
24412;DHT22;12544;46.760;15.942;2023-10-08T02:33:57;15.70;99.90
24412;DHT22;12544;46.760;15.942;2023-10-08T02:36:24;15.60;99.90
24412;DHT22;12544;46.760;15.942;2023-10-08T02:38:50;15.60;99.90
24412;DHT22;12544;46.760;15.942;2023-10-08T02:41:16;15.50;99.90
24412;DHT22;12544;46.760;15.942;2023-10-08T02:43:42;15.40;99.90
24412;DHT22;12544;46.760;15.942;2023-10-08T02:46:10;15.40;99.90
24412;DHT22;12544;46.760;15.942;2023-10-08T02:48:40;15.30;99.90
24412;DHT22;12544;46.760;15.942;2023-10-08T02:51:06;15.30;99.90
24412;DHT22;12544;46.760;15.942;2023-10-08T02:53:41;15.20;99.90
24412;DHT22;12544;46.760;15.942;2023-10-08T02:56:08;15.20;99.90
24412;DHT22;12544;46.760;15.942;2023-10-08T02:58:38;15.20;99.90
24412;DHT22;12544;46.760;15.942;2023-10-08T03:01:05;15.20;99.90
24412;DHT22;12544;46.760;15.942;2023-10-08T03:03:31;15.10;99.90
24412;DHT22;12544;46.760;15.942;2023-10-08T03:05:58;15.30;99.90
24412;DHT22;12544;46.760;15.942;2023-10-08T03:08:24;15.30;99.90
24412;DHT22;12544;46.760;15.942;2023-10-08T03:10:50;15.30;99.90
24412;DHT22;12544;46.760;15.942;2023-10-08T03:13:21;15.40;99.90
24412;DHT22;12544;46.760;15.942;2023-10-08T03:15:48;15.40;99.90
24412;DHT22;12544;46.760;15.942;2023-10-08T03:18:29;15.50;99.90
24412;DHT22;12544;46.760;15.942;2023-10-08T03:21:08;15.50;99.90
24412;DHT22;12544;46.760;15.942;2023-10-08T03:23:47;15.60;99.90
24412;DHT22;12544;46.760;15.942;2023-10-08T03:26:13;15.70;99.90
24412;DHT22;12544;46.760;15.942;2023-10-08T03:29:03;15.80;99.90
24412;DHT22;12544;46.760;15.942;2023-10-08T03:31:41;15.90;99.90
24412;DHT22;12544;46.760;15.942;2023-10-08T03:34:16;16.00;99.90
24412;DHT22;12544;46.760;15.942;2023-10-08T03:36:45;16.10;99.90
24412;DHT22;12544;46.760;15.942;2023-10-08T03:39:14;16.20;99.90
24412;DHT22;12544;46.760;15.942;2023-10-08T03:41:40;16.20;99.90
24412;DHT22;12544;46.760;15.942;2023-10-08T03:44:07;16.30;99.90
24412;DHT22;12544;46.760;15.942;2023-10-08T03:46:39;16.40;99.90
24412;DHT22;12544;46.760;15.942;2023-10-08T03:49:10;16.40;99.90
24412;DHT22;12544;46.760;15.942;2023-10-08T03:51:48;16.40;99.90
24412;DHT22;12544;46.760;15.942;2023-10-08T03:54:18;16.40;99.90
24412;DHT22;12544;46.760;15.942;2023-10-08T03:56:45;16.40;99.90
24412;DHT22;12544;46.760;15.942;2023-10-08T03:59:18;16.40;99.90
24412;DHT22;12544;46.760;15.942;2023-10-08T04:02:00;16.40;99.90
24412;DHT22;12544;46.760;15.942;2023-10-08T04:04:35;16.40;99.90
24412;DHT22;12544;46.760;15.942;2023-10-08T04:07:18;16.30;99.90
24412;DHT22;12544;46.760;15.942;2023-10-08T04:10:10;16.30;99.90
24412;DHT22;12544;46.760;15.942;2023-10-08T04:12:36;16.40;99.90
24412;DHT22;12544;46.760;15.942;2023-10-08T04:15:09;16.40;99.90
24412;DHT22;12544;46.760;15.942;2023-10-08T04:17:38;16.40;99.90
24412;DHT22;12544;46.760;15.942;2023-10-08T04:20:14;16.40;99.90
24412;DHT22;12544;46.760;15.942;2023-10-08T04:23:02;16.40;99.90
24412;DHT22;12544;46.760;15.942;2023-10-08T04:25:30;16.50;99.90
24412;DHT22;12544;46.760;15.942;2023-10-08T04:27:56;16.40;99.90
24412;DHT22;12544;46.760;15.942;2023-10-08T04:30:35;16.40;99.90
24412;DHT22;12544;46.760;15.942;2023-10-08T04:33:01;16.40;99.90
24412;DHT22;12544;46.760;15.942;2023-10-08T04:35:36;16.30;99.90
24412;DHT22;12544;46.760;15.942;2023-10-08T04:38:23;16.30;99.90
24412;DHT22;12544;46.760;15.942;2023-10-08T04:40:52;16.30;99.90
24412;DHT22;12544;46.760;15.942;2023-10-08T04:43:23;16.30;99.90
24412;DHT22;12544;46.760;15.942;2023-10-08T04:45:54;16.30;99.90
24412;DHT22;12544;46.760;15.942;2023-10-08T04:48:20;16.30;99.90
24412;DHT22;12544;46.760;15.942;2023-10-08T04:50:49;16.30;99.90
24412;DHT22;12544;46.760;15.942;2023-10-08T04:53:32;16.30;99.90
24412;DHT22;12544;46.760;15.942;2023-10-08T04:56:03;16.30;99.90
24412;DHT22;12544;46.760;15.942;2023-10-08T04:58:35;16.40;99.90
24412;DHT22;12544;46.760;15.942;2023-10-08T05:01:09;16.40;99.90
24412;DHT22;12544;46.760;15.942;2023-10-08T05:03:54;16.40;99.90
24412;DHT22;12544;46.760;15.942;2023-10-08T05:06:27;16.50;99.90
24412;DHT22;12544;46.760;15.942;2023-10-08T05:08:58;16.50;99.90
24412;DHT22;12544;46.760;15.942;2023-10-08T05:11:24;16.50;99.90
24412;DHT22;12544;46.760;15.942;2023-10-08T05:14:02;16.50;99.90
24412;DHT22;12544;46.760;15.942;2023-10-08T05:16:32;16.50;99.90
24412;DHT22;12544;46.760;15.942;2023-10-08T05:19:08;16.40;99.90
24412;DHT22;12544;46.760;15.942;2023-10-08T05:22:00;16.20;99.90
24412;DHT22;12544;46.760;15.942;2023-10-08T05:25:04;16.10;99.90
24412;DHT22;12544;46.760;15.942;2023-10-08T05:27:38;16.00;99.90
24412;DHT22;12544;46.760;15.942;2023-10-08T05:30:30;16.00;99.90
24412;DHT22;12544;46.760;15.942;2023-10-08T05:33:19;16.10;99.90
24412;DHT22;12544;46.760;15.942;2023-10-08T05:35:46;16.10;99.90
24412;DHT22;12544;46.760;15.942;2023-10-08T05:38:13;16.10;99.90
24412;DHT22;12544;46.760;15.942;2023-10-08T05:40:50;16.00;99.90
24412;DHT22;12544;46.760;15.942;2023-10-08T05:43:22;15.90;99.90
24412;DHT22;12544;46.760;15.942;2023-10-08T05:46:08;15.90;99.90
24412;DHT22;12544;46.760;15.942;2023-10-08T05:48:53;15.90;99.90
24412;DHT22;12544;46.760;15.942;2023-10-08T05:51:35;15.90;99.90
24412;DHT22;12544;46.760;15.942;2023-10-08T05:54:31;16.10;99.90
24412;DHT22;12544;46.760;15.942;2023-10-08T05:56:59;16.10;99.90
24412;DHT22;12544;46.760;15.942;2023-10-08T06:04:53;16.20;99.90
24412;DHT22;12544;46.760;15.942;2023-10-08T06:07:46;16.40;99.90
24412;DHT22;12544;46.760;15.942;2023-10-08T06:10:28;16.60;99.90
24412;DHT22;12544;46.760;15.942;2023-10-08T06:13:12;16.80;99.90
24412;DHT22;12544;46.760;15.942;2023-10-08T06:15:44;17.10;99.90
24412;DHT22;12544;46.760;15.942;2023-10-08T06:18:12;17.40;99.90
24412;DHT22;12544;46.760;15.942;2023-10-08T06:20:40;17.70;99.90
24412;DHT22;12544;46.760;15.942;2023-10-08T06:23:12;17.90;99.90
24412;DHT22;12544;46.760;15.942;2023-10-08T06:25:43;18.10;99.90
24412;DHT22;12544;46.760;15.942;2023-10-08T06:28:16;18.30;99.90
24412;DHT22;12544;46.760;15.942;2023-10-08T06:30:49;18.40;99.90
24412;DHT22;12544;46.760;15.942;2023-10-08T06:33:23;18.40;99.90
24412;DHT22;12544;46.760;15.942;2023-10-08T06:35:56;18.40;99.90
24412;DHT22;12544;46.760;15.942;2023-10-08T06:38:30;18.50;99.90
24412;DHT22;12544;46.760;15.942;2023-10-08T06:41:00;18.60;99.90
24412;DHT22;12544;46.760;15.942;2023-10-08T06:43:30;18.60;99.90
24412;DHT22;12544;46.760;15.942;2023-10-08T06:45:56;18.50;99.90
24412;DHT22;12544;46.760;15.942;2023-10-08T06:48:24;18.50;99.90
24412;DHT22;12544;46.760;15.942;2023-10-08T06:50:51;18.50;99.90
24412;DHT22;12544;46.760;15.942;2023-10-08T06:53:17;18.50;99.90
24412;DHT22;12544;46.760;15.942;2023-10-08T06:55:47;18.50;99.90
24412;DHT22;12544;46.760;15.942;2023-10-08T06:58:25;18.40;99.90
24412;DHT22;12544;46.760;15.942;2023-10-08T07:00:52;18.30;99.90
24412;DHT22;12544;46.760;15.942;2023-10-08T07:03:18;18.10;99.90
24412;DHT22;12544;46.760;15.942;2023-10-08T07:05:48;18.10;99.90
24412;DHT22;12544;46.760;15.942;2023-10-08T07:08:24;18.10;99.90
24412;DHT22;12544;46.760;15.942;2023-10-08T07:10:51;18.30;99.90
24412;DHT22;12544;46.760;15.942;2023-10-08T07:13:19;18.30;99.90
24412;DHT22;12544;46.760;15.942;2023-10-08T07:15:51;18.40;99.90
24412;DHT22;12544;46.760;15.942;2023-10-08T07:18:17;18.50;99.90
24412;DHT22;12544;46.760;15.942;2023-10-08T07:20:51;18.60;99.90
24412;DHT22;12544;46.760;15.942;2023-10-08T07:23:24;18.70;99.90
24412;DHT22;12544;46.760;15.942;2023-10-08T07:25:59;18.80;99.90
24412;DHT22;12544;46.760;15.942;2023-10-08T07:28:40;18.90;99.90
24412;DHT22;12544;46.760;15.942;2023-10-08T07:31:13;19.00;99.90
24412;DHT22;12544;46.760;15.942;2023-10-08T07:33:41;19.10;99.90
24412;DHT22;12544;46.760;15.942;2023-10-08T07:36:10;19.20;99.90
24412;DHT22;12544;46.760;15.942;2023-10-08T07:38:43;19.30;99.90
24412;DHT22;12544;46.760;15.942;2023-10-08T07:41:12;19.40;99.90
24412;DHT22;12544;46.760;15.942;2023-10-08T07:43:40;19.50;99.90
24412;DHT22;12544;46.760;15.942;2023-10-08T07:46:07;19.60;99.90
24412;DHT22;12544;46.760;15.942;2023-10-08T07:48:33;19.70;99.90
24412;DHT22;12544;46.760;15.942;2023-10-08T07:50:59;19.70;99.90
24412;DHT22;12544;46.760;15.942;2023-10-08T07:53:25;19.80;99.90
24412;DHT22;12544;46.760;15.942;2023-10-08T07:55:51;19.80;99.90
24412;DHT22;12544;46.760;15.942;2023-10-08T07:58:18;19.90;99.90
24412;DHT22;12544;46.760;15.942;2023-10-08T08:00:44;19.90;99.90
24412;DHT22;12544;46.760;15.942;2023-10-08T08:03:20;19.90;99.90
24412;DHT22;12544;46.760;15.942;2023-10-08T08:05:46;19.90;99.90
24412;DHT22;12544;46.760;15.942;2023-10-08T08:08:13;19.90;99.90
24412;DHT22;12544;46.760;15.942;2023-10-08T08:10:44;20.00;99.90
24412;DHT22;12544;46.760;15.942;2023-10-08T08:13:11;20.10;99.90
24412;DHT22;12544;46.760;15.942;2023-10-08T08:15:37;20.30;99.90
24412;DHT22;12544;46.760;15.942;2023-10-08T08:18:08;20.40;99.90
24412;DHT22;12544;46.760;15.942;2023-10-08T08:20:41;20.40;99.90
24412;DHT22;12544;46.760;15.942;2023-10-08T08:23:09;20.40;99.90
24412;DHT22;12544;46.760;15.942;2023-10-08T08:25:42;20.50;99.90
24412;DHT22;12544;46.760;15.942;2023-10-08T08:28:26;20.50;99.90
24412;DHT22;12544;46.760;15.942;2023-10-08T08:30:54;20.60;99.90
24412;DHT22;12544;46.760;15.942;2023-10-08T08:33:21;20.60;99.90
24412;DHT22;12544;46.760;15.942;2023-10-08T08:36:02;20.60;99.90
24412;DHT22;12544;46.760;15.942;2023-10-08T08:38:31;20.70;99.90
24412;DHT22;12544;46.760;15.942;2023-10-08T08:41:04;20.70;99.90
24412;DHT22;12544;46.760;15.942;2023-10-08T08:43:34;20.80;99.90
24412;DHT22;12544;46.760;15.942;2023-10-08T08:46:02;20.90;99.90
24412;DHT22;12544;46.760;15.942;2023-10-08T08:48:32;20.90;99.90
24412;DHT22;12544;46.760;15.942;2023-10-08T08:50:59;21.00;99.90
24412;DHT22;12544;46.760;15.942;2023-10-08T08:53:25;21.00;99.90
24412;DHT22;12544;46.760;15.942;2023-10-08T08:55:52;21.00;99.90
24412;DHT22;12544;46.760;15.942;2023-10-08T08:58:19;21.10;99.90
24412;DHT22;12544;46.760;15.942;2023-10-08T09:00:47;21.10;99.90
24412;DHT22;12544;46.760;15.942;2023-10-08T09:03:13;21.20;99.90
24412;DHT22;12544;46.760;15.942;2023-10-08T09:05:39;21.30;99.90
24412;DHT22;12544;46.760;15.942;2023-10-08T09:08:06;21.20;99.90
24412;DHT22;12544;46.760;15.942;2023-10-08T09:10:34;21.40;99.90
24412;DHT22;12544;46.760;15.942;2023-10-08T09:13:04;21.40;99.90
24412;DHT22;12544;46.760;15.942;2023-10-08T09:15:30;21.60;99.90
24412;DHT22;12544;46.760;15.942;2023-10-08T09:17:58;21.60;99.90
24412;DHT22;12544;46.760;15.942;2023-10-08T09:20:28;21.70;99.90
24412;DHT22;12544;46.760;15.942;2023-10-08T09:23:14;21.90;99.90
24412;DHT22;12544;46.760;15.942;2023-10-08T09:25:44;22.00;99.90
24412;DHT22;12544;46.760;15.942;2023-10-08T09:28:11;22.10;99.90
24412;DHT22;12544;46.760;15.942;2023-10-08T09:30:40;22.10;99.90
24412;DHT22;12544;46.760;15.942;2023-10-08T09:33:08;22.20;99.90
24412;DHT22;12544;46.760;15.942;2023-10-08T09:35:34;22.30;99.90
24412;DHT22;12544;46.760;15.942;2023-10-08T09:38:02;22.40;99.90
24412;DHT22;12544;46.760;15.942;2023-10-08T09:40:29;22.50;99.90
24412;DHT22;12544;46.760;15.942;2023-10-08T09:42:55;22.60;99.90
24412;DHT22;12544;46.760;15.942;2023-10-08T09:45:22;22.60;99.90
24412;DHT22;12544;46.760;15.942;2023-10-08T09:47:55;22.50;99.90
24412;DHT22;12544;46.760;15.942;2023-10-08T09:50:27;22.50;99.90
24412;DHT22;12544;46.760;15.942;2023-10-08T09:53:08;22.50;99.90
24412;DHT22;12544;46.760;15.942;2023-10-08T09:55:45;22.50;99.90
24412;DHT22;12544;46.760;15.942;2023-10-08T09:58:12;22.60;99.90
24412;DHT22;12544;46.760;15.942;2023-10-08T10:00:40;22.60;99.90
24412;DHT22;12544;46.760;15.942;2023-10-08T10:03:08;22.70;99.90
24412;DHT22;12544;46.760;15.942;2023-10-08T10:05:34;22.80;99.90
24412;DHT22;12544;46.760;15.942;2023-10-08T10:08:03;22.90;99.90
24412;DHT22;12544;46.760;15.942;2023-10-08T10:10:32;23.20;99.90
24412;DHT22;12544;46.760;15.942;2023-10-08T10:13:04;23.40;99.90
24412;DHT22;12544;46.760;15.942;2023-10-08T10:15:32;23.60;99.90
24412;DHT22;12544;46.760;15.942;2023-10-08T10:18:14;23.80;99.90
24412;DHT22;12544;46.760;15.942;2023-10-08T10:20:51;24.00;99.90
24412;DHT22;12544;46.760;15.942;2023-10-08T10:31:51;24.70;99.90
24412;DHT22;12544;46.760;15.942;2023-10-08T10:34:25;24.80;99.90
24412;DHT22;12544;46.760;15.942;2023-10-08T10:36:55;24.90;99.90
24412;DHT22;12544;46.760;15.942;2023-10-08T10:39:24;25.00;99.90
24412;DHT22;12544;46.760;15.942;2023-10-08T10:41:55;25.00;99.90
24412;DHT22;12544;46.760;15.942;2023-10-08T10:44:24;25.20;99.80
24412;DHT22;12544;46.760;15.942;2023-10-08T10:46:50;25.50;99.90
24412;DHT22;12544;46.760;15.942;2023-10-08T10:49:20;25.80;99.90
24412;DHT22;12544;46.760;15.942;2023-10-08T10:51:57;26.30;99.80
24412;DHT22;12544;46.760;15.942;2023-10-08T10:54:26;26.70;99.60
24412;DHT22;12544;46.760;15.942;2023-10-08T10:57:01;27.20;98.10
24412;DHT22;12544;46.760;15.942;2023-10-08T10:59:42;27.40;97.60
24412;DHT22;12544;46.760;15.942;2023-10-08T11:02:19;27.50;96.80
24412;DHT22;12544;46.760;15.942;2023-10-08T11:05:05;27.70;95.70
24412;DHT22;12544;46.760;15.942;2023-10-08T11:07:34;27.90;94.50
24412;DHT22;12544;46.760;15.942;2023-10-08T11:10:00;28.40;95.30
24412;DHT22;12544;46.760;15.942;2023-10-08T11:12:26;28.70;95.60
24412;DHT22;12544;46.760;15.942;2023-10-08T11:15:12;29.10;93.10
24412;DHT22;12544;46.760;15.942;2023-10-08T11:17:44;29.20;88.80
24412;DHT22;12544;46.760;15.942;2023-10-08T11:20:28;29.20;86.90
24412;DHT22;12544;46.760;15.942;2023-10-08T11:22:54;29.00;84.00
24412;DHT22;12544;46.760;15.942;2023-10-08T11:25:24;28.70;84.80
24412;DHT22;12544;46.760;15.942;2023-10-08T11:27:56;28.60;87.80
24412;DHT22;12544;46.760;15.942;2023-10-08T11:30:28;28.40;85.30
24412;DHT22;12544;46.760;15.942;2023-10-08T11:32:59;28.50;86.90
24412;DHT22;12544;46.760;15.942;2023-10-08T11:35:25;28.40;86.10
24412;DHT22;12544;46.760;15.942;2023-10-08T11:37:58;28.50;83.10
24412;DHT22;12544;46.760;15.942;2023-10-08T11:40:26;28.50;84.30
24412;DHT22;12544;46.760;15.942;2023-10-08T11:43:14;28.50;82.70
24412;DHT22;12544;46.760;15.942;2023-10-08T11:45:42;28.40;85.20
24412;DHT22;12544;46.760;15.942;2023-10-08T11:48:14;28.40;82.90
24412;DHT22;12544;46.760;15.942;2023-10-08T11:50:42;28.40;82.30
24412;DHT22;12544;46.760;15.942;2023-10-08T11:53:09;28.50;82.90
24412;DHT22;12544;46.760;15.942;2023-10-08T11:55:37;28.40;82.70
24412;DHT22;12544;46.760;15.942;2023-10-08T11:58:07;28.30;80.10
24412;DHT22;12544;46.760;15.942;2023-10-08T12:00:42;28.00;80.60
24412;DHT22;12544;46.760;15.942;2023-10-08T12:03:14;27.90;81.90
24412;DHT22;12544;46.760;15.942;2023-10-08T12:05:44;27.80;84.70
24412;DHT22;12544;46.760;15.942;2023-10-08T12:08:18;27.70;83.50
24412;DHT22;12544;46.760;15.942;2023-10-08T12:10:46;27.60;83.30
24412;DHT22;12544;46.760;15.942;2023-10-08T12:13:12;27.50;81.90
24412;DHT22;12544;46.760;15.942;2023-10-08T12:15:38;27.50;82.20
24412;DHT22;12544;46.760;15.942;2023-10-08T12:18:04;27.50;83.30
24412;DHT22;12544;46.760;15.942;2023-10-08T12:20:49;27.50;83.40
24412;DHT22;12544;46.760;15.942;2023-10-08T12:23:14;27.70;84.60
24412;DHT22;12544;46.760;15.942;2023-10-08T12:25:55;27.60;82.60
24412;DHT22;12544;46.760;15.942;2023-10-08T12:28:22;27.50;81.20
24412;DHT22;12544;46.760;15.942;2023-10-08T12:30:49;27.30;82.00
24412;DHT22;12544;46.760;15.942;2023-10-08T12:33:18;27.10;85.80
24412;DHT22;12544;46.760;15.942;2023-10-08T12:35:48;27.00;84.50
24412;DHT22;12544;46.760;15.942;2023-10-08T12:38:14;26.80;85.00
24412;DHT22;12544;46.760;15.942;2023-10-08T12:40:40;26.80;86.70
24412;DHT22;12544;46.760;15.942;2023-10-08T12:43:19;26.90;88.20
24412;DHT22;12544;46.760;15.942;2023-10-08T12:45:54;26.90;88.60
24412;DHT22;12544;46.760;15.942;2023-10-08T12:48:26;26.90;89.20
24412;DHT22;12544;46.760;15.942;2023-10-08T12:50:53;27.00;89.10
24412;DHT22;12544;46.760;15.942;2023-10-08T12:53:23;27.10;88.40
24412;DHT22;12544;46.760;15.942;2023-10-08T12:56:05;27.00;85.90
24412;DHT22;12544;46.760;15.942;2023-10-08T12:58:35;26.90;86.70
24412;DHT22;12544;46.760;15.942;2023-10-08T13:01:07;27.00;86.30
24412;DHT22;12544;46.760;15.942;2023-10-08T13:03:35;26.90;85.40
24412;DHT22;12544;46.760;15.942;2023-10-08T13:06:09;26.90;87.80
24412;DHT22;12544;46.760;15.942;2023-10-08T13:08:51;26.90;86.60
24412;DHT22;12544;46.760;15.942;2023-10-08T13:11:19;26.80;86.50
24412;DHT22;12544;46.760;15.942;2023-10-08T13:13:49;26.80;88.20
24412;DHT22;12544;46.760;15.942;2023-10-08T13:16:15;26.70;86.10
24412;DHT22;12544;46.760;15.942;2023-10-08T13:18:40;26.60;87.40
24412;DHT22;12544;46.760;15.942;2023-10-08T13:21:09;26.70;86.70
24412;DHT22;12544;46.760;15.942;2023-10-08T13:23:35;26.70;87.60
24412;DHT22;12544;46.760;15.942;2023-10-08T13:26:01;26.80;88.70
24412;DHT22;12544;46.760;15.942;2023-10-08T13:28:30;27.10;85.70
24412;DHT22;12544;46.760;15.942;2023-10-08T13:30:56;27.50;86.30
24412;DHT22;12544;46.760;15.942;2023-10-08T13:33:22;27.90;83.70
24412;DHT22;12544;46.760;15.942;2023-10-08T13:35:48;28.00;85.80
24412;DHT22;12544;46.760;15.942;2023-10-08T13:38:20;27.40;88.40
24412;DHT22;12544;46.760;15.942;2023-10-08T13:40:46;26.50;90.40
24412;DHT22;12544;46.760;15.942;2023-10-08T13:43:31;25.90;91.40
24412;DHT22;12544;46.760;15.942;2023-10-08T13:46:05;24.90;92.40
24412;DHT22;12544;46.760;15.942;2023-10-08T13:48:35;24.20;93.30
24412;DHT22;12544;46.760;15.942;2023-10-08T13:51:05;23.20;94.70
24412;DHT22;12544;46.760;15.942;2023-10-08T13:53:31;22.40;95.60
24412;DHT22;12544;46.760;15.942;2023-10-08T13:56:01;21.70;96.90
24412;DHT22;12544;46.760;15.942;2023-10-08T13:58:28;21.10;97.80
24412;DHT22;12544;46.760;15.942;2023-10-08T14:00:58;20.80;98.90
24412;DHT22;12544;46.760;15.942;2023-10-08T14:03:30;20.60;99.70
24412;DHT22;12544;46.760;15.942;2023-10-08T14:05:59;20.50;99.90
24412;DHT22;12544;46.760;15.942;2023-10-08T14:08:30;20.40;99.90
24412;DHT22;12544;46.760;15.942;2023-10-08T14:10:57;20.30;99.90
24412;DHT22;12544;46.760;15.942;2023-10-08T14:13:29;20.30;99.90
24412;DHT22;12544;46.760;15.942;2023-10-08T14:15:57;20.10;99.90
24412;DHT22;12544;46.760;15.942;2023-10-08T14:18:23;20.00;99.90
24412;DHT22;12544;46.760;15.942;2023-10-08T14:20:54;19.80;99.90
24412;DHT22;12544;46.760;15.942;2023-10-08T14:23:21;19.90;99.90
24412;DHT22;12544;46.760;15.942;2023-10-08T14:25:49;19.80;99.90
24412;DHT22;12544;46.760;15.942;2023-10-08T14:28:17;19.50;99.90
24412;DHT22;12544;46.760;15.942;2023-10-08T14:31:08;19.10;99.90
24412;DHT22;12544;46.760;15.942;2023-10-08T14:33:34;18.80;99.90
24412;DHT22;12544;46.760;15.942;2023-10-08T14:36:24;18.50;99.90
24412;DHT22;12544;46.760;15.942;2023-10-08T14:39:09;18.30;99.90
24412;DHT22;12544;46.760;15.942;2023-10-08T14:41:54;18.20;99.90
24412;DHT22;12544;46.760;15.942;2023-10-08T14:44:38;18.10;99.90
24412;DHT22;12544;46.760;15.942;2023-10-08T14:47:04;18.00;99.90
24412;DHT22;12544;46.760;15.942;2023-10-08T14:49:30;18.00;99.90
24412;DHT22;12544;46.760;15.942;2023-10-08T14:51:57;17.80;99.90
24412;DHT22;12544;46.760;15.942;2023-10-08T14:54:23;17.50;99.90
24412;DHT22;12544;46.760;15.942;2023-10-08T14:56:50;17.40;99.90
24412;DHT22;12544;46.760;15.942;2023-10-08T14:59:16;17.30;99.90
24412;DHT22;12544;46.760;15.942;2023-10-08T15:01:46;17.30;99.90
24412;DHT22;12544;46.760;15.942;2023-10-08T15:04:13;17.10;99.90
24412;DHT22;12544;46.760;15.942;2023-10-08T15:06:39;17.10;99.90
24412;DHT22;12544;46.760;15.942;2023-10-08T15:09:07;17.00;99.90
24412;DHT22;12544;46.760;15.942;2023-10-08T15:11:35;16.90;99.90
24412;DHT22;12544;46.760;15.942;2023-10-08T15:14:02;16.70;99.90
24412;DHT22;12544;46.760;15.942;2023-10-08T15:16:37;16.50;99.90
24412;DHT22;12544;46.760;15.942;2023-10-08T15:19:04;16.40;99.90
24412;DHT22;12544;46.760;15.942;2023-10-08T15:21:31;16.30;99.90
24412;DHT22;12544;46.760;15.942;2023-10-08T15:23:59;16.20;99.90
24412;DHT22;12544;46.760;15.942;2023-10-08T15:26:36;16.10;99.90
24412;DHT22;12544;46.760;15.942;2023-10-08T15:29:02;16.20;99.90
24412;DHT22;12544;46.760;15.942;2023-10-08T15:31:28;16.00;99.90
24412;DHT22;12544;46.760;15.942;2023-10-08T15:33:54;15.90;99.90
24412;DHT22;12544;46.760;15.942;2023-10-08T15:36:20;15.70;99.90
24412;DHT22;12544;46.760;15.942;2023-10-08T15:38:45;15.50;99.90
24412;DHT22;12544;46.760;15.942;2023-10-08T15:41:11;15.40;99.90
24412;DHT22;12544;46.760;15.942;2023-10-08T15:43:39;15.30;99.90
24412;DHT22;12544;46.760;15.942;2023-10-08T15:46:05;15.20;99.90
24412;DHT22;12544;46.760;15.942;2023-10-08T15:48:31;15.20;99.90
24412;DHT22;12544;46.760;15.942;2023-10-08T15:50:59;15.10;99.90
24412;DHT22;12544;46.760;15.942;2023-10-08T15:53:24;15.10;99.90